Página principal
METAR-TAF:

METAR-TAF

Aeroportos :

Aeroporto de Paris-Charles de Gaulle

Paris-Charles De Gaulle, França

latitude: 49-01N, longitude: 002-32E, altura: 118 m

Observação actual do tempo

O boletim foi feito há 30 minutos, às 18:30 UTC
Vento 9 kt de nordeste
Temperatura 10°C
Humidade 62%
Pressão 1032 hPa
Visibilidade 10 km ou mais
sem nuvens abaixo de 1500 metros e sem cumulonimbus

METAR: LFPG 231830Z 05009KT CAVOK 10/03 Q1032 NOSIG

Hora: 20:00 (19:00 UTC)

Previsão

O boletim foi feito há 2 horas e 0 minutos, às 17:00 UTC
Previsão válida de 23 às 18 UTC a 24 às 24 UTC
Vento 5 kt de es-nordeste
Visibilidade 10 km ou mais
sem nuvens abaixo de 1500 metros e sem cumulonimbus

TAF: LFPG 231700Z 2318/2424 06005KT CAVOK TX13/2414Z TN02/2403Z

Observações e previsões do tempo de mais de 4000 aeroportos (mensagens METAR e TAF).

As estações disponíveis são os pontos amarelos e vermelhos sobre o mapa.

Mova o rato sobre o mapa para ver o nome da estação.

Depois clique no ponto para visualizar as observações e previsões meteorológicas.

Para alterar o mapa : clique nos botões verdes com uma cruz preta para aumentar o zoom; no botão verde com uma pitada de zoom; ou nas setas verdes para mapas adjacentes.


METAR-TAF: